Time;durP1;ratioP1;P1;durP2;ratioP2;P2;SDS_P1;SDS_P2;PMS_P1;PMS_P2;Temp;Humidity;BMP_temperature;BMP_pressure;BME280_temperature;BME280_humidity;BME280_pressure;Samples;Min_cycle;Max_cycle;Signal;HPM_P1;HPM_P2
2022/01/28 00:02:46;;;;;;;12.98;2.35;;;5.20;99.90;;;;;;5114797;28;19981;-89
2022/01/28 00:05:17;;;;;;;;;;;5.20;99.90;;;;;;5115238;28;20087;-90
2022/01/28 00:07:43;;;;;;;;;;;5.10;99.90;;;;;;5097664;28;19920;-89
2022/01/28 00:10:08;;;;;;;17.73;2.92;;;5.10;99.90;;;;;;5114721;28;20321;-90
2022/01/28 00:12:38;;;;;;;15.55;2.40;;;5.00;99.90;;;;;;5096856;28;20433;-89
2022/01/28 00:15:18;;;;;;;18.25;2.70;;;5.10;99.90;;;;;;5096806;28;20432;-89
2022/01/28 00:38:50;;;;;;;8.95;2.15;;;5.20;99.90;;;;;;5114571;28;20053;-90
2022/01/28 00:41:16;;;;;;;13.80;1.98;;;5.20;99.90;;;;;;5113988;28;20043;-89
2022/01/28 00:43:42;;;;;;;10.55;2.20;;;5.20;99.90;;;;;;5114288;28;20110;-89
2022/01/28 00:46:07;;;;;;;14.55;2.50;;;5.10;99.90;;;;;;5095614;28;20047;-89
2022/01/28 00:48:33;;;;;;;17.35;2.60;;;5.10;99.90;;;;;;5096180;28;20083;-89
2022/01/28 00:50:59;;;;;;;13.23;2.60;;;5.10;99.90;;;;;;5114218;28;20069;-89
2022/01/28 00:53:24;;;;;;;12.38;2.25;;;5.00;99.90;;;;;;5113688;28;20044;-90
2022/01/28 00:55:50;;;;;;;13.30;2.35;;;5.00;99.90;;;;;;5114209;28;20384;-90
2022/01/28 00:58:16;;;;;;;20.08;3.38;;;4.90;99.90;;;;;;5113582;28;20062;-90
2022/01/28 01:00:41;;;;;;;17.73;2.92;;;4.90;99.90;;;;;;5078451;28;20047;-90
2022/01/28 01:03:07;;;;;;;20.92;3.03;;;4.90;99.90;;;;;;5096071;28;20092;-89
2022/01/28 01:05:34;;;;;;;15.65;2.60;;;4.80;99.90;;;;;;5095740;28;20372;-90
2022/01/28 01:08:03;;;;;;;21.27;3.75;;;4.80;99.90;;;;;;5113819;28;20448;-90
2022/01/28 01:10:29;;;;;;;19.30;3.22;;;4.80;99.90;;;;;;5095520;28;20074;-89
2022/01/28 01:12:55;;;;;;;24.13;3.80;;;4.90;99.90;;;;;;5095729;28;20048;-90
2022/01/28 01:15:24;;;;;;;19.35;3.00;;;5.00;99.90;;;;;;5113418;28;20040;-90
2022/01/28 01:18:05;;;;;;;19.77;3.47;;;4.80;99.90;;;;;;5113794;28;20442;-90
2022/01/28 01:20:49;;;;;;;20.38;2.65;;;4.80;99.90;;;;;;5113434;28;20099;-91
2022/01/28 01:23:22;;;;;;;15.68;3.55;;;4.80;99.90;;;;;;5113284;28;20039;-90
2022/01/28 01:25:53;;;;;;;25.98;3.47;;;4.80;99.90;;;;;;5079619;28;20044;-90
2022/01/28 01:28:21;;;;;;;19.13;3.60;;;4.80;99.90;;;;;;5095878;28;20040;-89
2022/01/28 01:30:47;;;;;;;16.13;3.65;;;4.80;99.90;;;;;;5089667;28;20051;-90
2022/01/28 01:33:14;;;;;;;24.15;3.30;;;4.90;99.90;;;;;;5113056;27;20047;-89
2022/01/28 01:35:40;;;;;;;17.15;3.05;;;4.90;99.90;;;;;;5113409;28;20441;-90
2022/01/28 01:38:07;;;;;;;19.92;3.60;;;4.90;99.90;;;;;;5112437;28;20039;-89
2022/01/28 01:40:41;;;;;;;27.35;3.65;;;5.00;99.90;;;;;;5111751;28;20534;-90
2022/01/28 01:43:16;;;;;;;21.25;2.95;;;4.90;99.90;;;;;;5080903;28;20051;-89
2022/01/28 01:53:38;;;;;;;21.85;3.42;;;5.10;99.90;;;;;;5112897;28;20087;-90
2022/01/28 01:56:04;;;;;;;21.17;2.92;;;5.10;99.90;;;;;;5112093;28;20075;-90
2022/01/28 01:58:31;;;;;;;29.95;4.80;;;5.20;99.90;;;;;;5112703;28;20050;-89
2022/01/28 02:01:00;;;;;;;22.30;3.67;;;5.20;99.90;;;;;;5095336;28;20130;-89
2022/01/28 02:03:27;;;;;;;23.35;3.60;;;5.20;99.90;;;;;;5078113;28;20036;-89
2022/01/28 02:05:58;;;;;;;22.35;3.67;;;5.20;99.90;;;;;;5111800;28;20047;-90
2022/01/28 02:08:27;;;;;;;24.40;4.30;;;5.30;99.90;;;;;;5112554;28;20126;-89
2022/01/28 02:10:58;;;;;;;25.15;3.78;;;5.40;99.90;;;;;;5111686;28;20105;-89
2022/01/28 02:13:28;;;;;;;19.98;3.13;;;5.40;99.90;;;;;;5111207;28;20426;-89
2022/01/28 02:15:54;;;;;;;;;;;5.50;99.90;;;;;;5094653;28;20449;-91
2022/01/28 02:18:21;;;;;;;19.85;3.53;;;5.50;99.90;;;;;;5094188;28;19923;-89
2022/01/28 02:20:50;;;;;;;23.27;3.58;;;5.40;99.90;;;;;;5078187;28;20051;-88
2022/01/28 02:23:15;;;;;;;23.15;4.13;;;5.50;99.90;;;;;;5113032;28;20081;-89
2022/01/28 02:25:42;;;;;;;18.13;3.17;;;5.50;99.90;;;;;;5111086;28;20040;-89
2022/01/28 02:28:10;;;;;;;25.17;3.83;;;5.50;99.90;;;;;;5111796;28;20118;-89
2022/01/28 02:30:35;;;;;;;27.13;4.30;;;5.50;99.90;;;;;;5110231;28;20055;-90
2022/01/28 02:33:10;;;;;;;27.85;4.10;;;5.50;99.90;;;;;;5094633;28;20062;-89
2022/01/28 02:35:36;;;;;;;21.95;3.85;;;5.50;99.90;;;;;;5094349;28;20055;-89
2022/01/28 02:38:02;;;;;;;25.70;3.85;;;5.40;99.90;;;;;;5077837;28;20055;-90
2022/01/28 02:40:27;;;;;;;21.38;3.63;;;5.40;99.90;;;;;;5112150;28;20043;-90
2022/01/28 02:43:33;;;;;;;24.20;3.50;;;5.40;99.90;;;;;;5112709;28;20044;-91
2022/01/28 02:45:46;;;;;;;26.77;3.90;;;5.40;99.90;;;;;;5108469;28;20043;-90
2022/01/28 02:48:22;;;;;;;27.05;4.40;;;5.40;99.90;;;;;;5112793;28;20438;-90
2022/01/28 02:51:09;;;;;;;30.40;4.22;;;5.40;99.90;;;;;;5112273;28;20047;-89
2022/01/28 02:53:45;;;;;;;24.30;4.43;;;5.40;99.90;;;;;;5111328;28;20471;-90
2022/01/28 02:56:48;;;;;;;23.98;3.53;;;5.30;99.90;;;;;;5095984;28;20040;-90
2022/01/28 02:59:03;;;;;;;26.75;3.92;;;5.30;99.90;;;;;;5094982;28;20125;-90
2022/01/28 03:01:29;;;;;;;25.23;3.63;;;5.40;99.90;;;;;;5077602;28;20474;-89
2022/01/28 03:03:56;;;;;;;25.10;3.53;;;5.40;99.90;;;;;;5061226;28;20052;-90
2022/01/28 03:06:22;;;;;;;27.10;3.63;;;5.40;99.90;;;;;;5112414;28;20055;-90
2022/01/28 03:08:58;;;;;;;28.27;4.30;;;5.40;99.90;;;;;;5110748;28;20077;-90
2022/01/28 03:16:39;;;;;;;26.58;4.07;;;5.40;99.90;;;;;;5082203;28;20058;-90
2022/01/28 03:19:17;;;;;;;26.42;4.25;;;5.30;99.90;;;;;;5112691;28;20044;-91
2022/01/28 03:21:53;;;;;;;19.35;4.22;;;5.40;99.90;;;;;;5112036;28;20055;-90
2022/01/28 03:24:19;;;;;;;29.05;4.32;;;5.30;99.90;;;;;;5114714;28;20050;-90
2022/01/28 03:26:46;;;;;;;21.70;3.97;;;5.30;99.90;;;;;;5115576;28;20044;-89
2022/01/28 03:29:11;;;;;;;18.90;3.33;;;5.30;99.90;;;;;;5115850;28;20051;-90
2022/01/28 03:31:38;;;;;;;21.23;4.00;;;5.20;99.90;;;;;;5097717;28;20044;-90
2022/01/28 03:34:04;;;;;;;23.90;3.60;;;5.20;99.90;;;;;;5115977;28;20096;-90
2022/01/28 03:36:30;;;;;;;24.23;3.20;;;5.10;99.90;;;;;;5081170;28;20036;-90
2022/01/28 03:38:55;;;;;;;25.88;3.55;;;5.10;99.90;;;;;;5097949;28;20427;-90
2022/01/28 03:41:23;;;;;;;25.38;3.85;;;5.10;99.90;;;;;;5097906;28;20066;-90
2022/01/28 03:43:48;;;;;;;18.92;3.47;;;5.10;99.90;;;;;;5097237;28;20062;-90
2022/01/28 03:46:14;;;;;;;22.33;3.75;;;5.10;99.90;;;;;;5080824;28;20050;-89
2022/01/28 03:48:40;;;;;;;20.98;4.38;;;5.10;99.90;;;;;;5097420;28;20475;-89
2022/01/28 03:51:06;;;;;;;24.83;3.92;;;5.10;99.90;;;;;;5080788;28;20396;-90
2022/01/28 03:53:31;;;;;;;20.77;3.60;;;5.10;99.90;;;;;;5097623;28;20054;-89
2022/01/28 03:55:58;;;;;;;24.40;4.50;;;5.10;99.90;;;;;;5096870;28;20051;-90
2022/01/28 03:58:24;;;;;;;23.00;3.28;;;5.10;99.90;;;;;;5115714;28;20047;-90
2022/01/28 04:00:51;;;;;;;21.92;3.85;;;5.20;99.90;;;;;;5080146;28;20043;-90
2022/01/28 04:13:53;;;;;;;23.55;3.97;;;5.30;99.90;;;;;;5096636;28;20138;-90
2022/01/28 04:18:48;;;;;;;17.13;3.55;;;5.40;99.90;;;;;;5114779;28;20056;-90
2022/01/28 04:21:13;;;;;;;22.58;4.32;;;5.40;99.90;;;;;;5114738;28;20051;-90
2022/01/28 04:23:39;;;;;;;20.08;3.40;;;5.40;99.90;;;;;;5079672;28;20389;-89
2022/01/28 04:26:05;;;;;;;20.33;3.67;;;5.40;99.90;;;;;;5095965;28;20399;-89
2022/01/28 04:28:30;;;;;;;25.73;3.63;;;5.50;99.90;;;;;;5114781;28;20136;-90
2022/01/28 04:30:56;;;;;;;19.90;3.42;;;5.40;99.90;;;;;;5108682;28;20079;-90
2022/01/28 04:33:22;;;;;;;24.98;3.92;;;5.40;99.90;;;;;;5114828;28;20070;-90
2022/01/28 04:35:51;;;;;;;25.92;3.50;;;5.40;99.90;;;;;;5113805;28;20085;-90
2022/01/28 04:38:36;;;;;;;28.27;4.38;;;5.30;99.90;;;;;;5113727;28;20054;-89
2022/01/28 04:41:15;;;;;;;26.83;4.10;;;5.30;99.90;;;;;;5114298;28;20368;-89
2022/01/28 04:43:53;;;;;;;23.20;4.30;;;5.40;99.90;;;;;;5098175;28;20077;-89
2022/01/28 04:46:33;;;;;;;20.92;3.40;;;5.20;99.90;;;;;;5114778;28;20459;-89
2022/01/28 04:49:06;;;;;;;24.95;4.35;;;5.20;99.90;;;;;;5113352;28;20052;-88
2022/01/28 04:59:48;;;;;;;27.35;4.38;;;5.00;99.90;;;;;;5114365;28;20471;-90
2022/01/28 05:02:34;;;;;;;25.35;3.85;;;5.00;99.90;;;;;;5113448;28;20090;-90
2022/01/28 05:05:16;;;;;;;23.40;4.07;;;5.00;99.90;;;;;;5113821;27;20039;-89
2022/01/28 05:08:46;;;;;;;33.65;4.90;;;5.00;99.90;;;;;;5113246;28;20051;-89
2022/01/28 05:11:19;;;;;;;22.75;3.67;;;5.10;99.90;;;;;;5107148;28;20135;-89
2022/01/28 05:24:24;;;;;;;27.90;4.90;;;5.40;99.90;;;;;;5098148;28;20055;-90
2022/01/28 05:26:59;;;;;;;31.85;4.90;;;5.40;99.90;;;;;;5085790;28;20499;-89
2022/01/28 05:29:25;;;;;;;24.48;4.18;;;5.40;99.90;;;;;;5112553;28;20148;-89
2022/01/28 05:31:51;;;;;;;25.88;4.07;;;5.40;99.90;;;;;;5095115;28;20438;-89
2022/01/28 05:34:17;;;;;;;26.45;5.72;;;5.40;99.90;;;;;;5095570;28;20096;-90
2022/01/28 05:36:43;;;;;;;22.75;4.55;;;5.30;99.90;;;;;;5113586;28;20093;-90
2022/01/28 05:39:08;;;;;;;23.98;4.30;;;5.20;99.90;;;;;;5113082;28;20044;-91
2022/01/28 05:41:34;;;;;;;27.30;4.35;;;5.20;99.90;;;;;;5113565;28;20083;-90
2022/01/28 05:44:02;;;;;;;25.17;4.22;;;5.20;99.90;;;;;;5113344;28;20086;-93
2022/01/28 05:46:29;;;;;;;25.63;4.10;;;5.10;99.90;;;;;;5113384;28;20048;-90
2022/01/28 05:48:56;;;;;;;30.65;4.25;;;5.00;99.90;;;;;;5113274;28;20054;-87
2022/01/28 05:51:21;;;;;;;30.20;4.28;;;5.00;99.90;;;;;;5095567;28;20048;-86
2022/01/28 05:53:47;;;;;;;28.58;4.32;;;4.90;99.90;;;;;;5113247;28;20039;-87
2022/01/28 05:56:13;;;;;;;25.38;3.92;;;4.90;99.90;;;;;;5094989;28;20048;-85
2022/01/28 05:58:38;;;;;;;25.25;3.70;;;4.80;99.90;;;;;;5095287;28;20046;-85
2022/01/28 06:01:04;;;;;;;28.98;4.28;;;4.70;99.90;;;;;;5094400;28;20043;-87
2022/01/28 06:03:29;;;;;;;24.42;4.22;;;4.70;99.90;;;;;;5095279;28;20035;-85
2022/01/28 06:05:55;;;;;;;23.13;3.90;;;4.80;99.90;;;;;;5094907;28;20483;-86
2022/01/28 06:08:21;;;;;;;21.90;4.10;;;4.80;99.90;;;;;;5095715;28;20051;-86
2022/01/28 06:10:47;;;;;;;24.77;4.47;;;4.80;99.90;;;;;;5114163;28;20471;-87
2022/01/28 06:13:12;;;;;;;23.88;3.63;;;4.80;99.90;;;;;;5062135;28;20044;-86
2022/01/28 06:15:41;;;;;;;26.60;4.10;;;4.80;99.90;;;;;;5078178;28;20043;-85
2022/01/28 06:18:08;;;;;;;18.88;3.42;;;4.90;99.90;;;;;;5061817;28;20165;-85
2022/01/28 06:20:34;;;;;;;20.65;4.32;;;4.90;99.90;;;;;;5078358;28;20048;-84
2022/01/28 06:22:59;;;;;;;23.58;3.63;;;5.10;99.90;;;;;;5094467;28;20054;-87
2022/01/28 06:25:25;;;;;;;23.73;4.05;;;5.00;99.90;;;;;;5094769;28;20044;-87
2022/01/28 06:27:51;;;;;;;22.00;3.80;;;5.00;99.90;;;;;;5094806;28;20088;-84
2022/01/28 06:30:17;;;;;;;23.52;3.88;;;5.00;99.90;;;;;;5098735;28;20059;-88
2022/01/28 06:32:43;;;;;;;20.13;3.60;;;5.10;99.90;;;;;;5112701;28;20051;-88
2022/01/28 06:35:08;;;;;;;21.92;3.08;;;5.00;99.90;;;;;;5112765;28;20445;-88
2022/01/28 06:37:42;;;;;;;20.45;3.17;;;5.00;99.90;;;;;;5095111;28;20475;-88
2022/01/28 06:40:09;;;;;;;21.83;3.53;;;5.00;99.90;;;;;;5111401;28;20051;-87
2022/01/28 06:42:34;;;;;;;18.67;3.50;;;5.00;99.90;;;;;;5078105;28;20050;-88
2022/01/28 06:45:00;;;;;;;21.75;3.20;;;5.00;99.90;;;;;;5112526;28;20123;-88
2022/01/28 06:47:26;;;;;;;21.38;3.60;;;4.90;99.90;;;;;;5112869;28;20040;-88
2022/01/28 06:49:52;;;;;;;25.20;3.70;;;4.90;99.90;;;;;;5094906;28;20502;-87
2022/01/28 06:52:17;;;;;;;25.33;3.63;;;4.90;99.90;;;;;;5112105;28;20130;-87
2022/01/28 06:54:43;;;;;;;19.02;3.60;;;5.00;99.90;;;;;;5112782;28;20525;-88
2022/01/28 06:57:09;;;;;;;26.17;3.80;;;4.90;99.90;;;;;;5111041;28;20068;-87
2022/01/28 06:59:34;;;;;;;25.00;4.00;;;4.90;99.90;;;;;;5116700;28;20045;-88
2022/01/28 07:02:00;;;;;;;19.90;3.40;;;4.80;99.90;;;;;;5115329;28;20039;-88
2022/01/28 07:04:25;;;;;;;24.05;3.95;;;4.90;99.90;;;;;;5116681;28;20035;-88
2022/01/28 07:06:51;;;;;;;23.55;3.60;;;4.90;99.90;;;;;;5115402;28;20117;-88
2022/01/28 07:09:17;;;;;;;21.63;3.55;;;4.90;99.90;;;;;;5116054;28;20061;-88
2022/01/28 07:11:43;;;;;;;22.30;3.67;;;4.90;99.90;;;;;;5115424;28;20089;-88
2022/01/28 07:14:09;;;;;;;18.52;3.65;;;4.90;99.90;;;;;;5114952;28;20051;-87
2022/01/28 07:16:35;;;;;;;19.80;3.75;;;4.90;99.90;;;;;;5081612;28;20051;-87
2022/01/28 07:19:02;;;;;;;24.38;4.50;;;5.00;99.90;;;;;;5115067;28;20099;-93
2022/01/28 07:21:28;;;;;;;25.10;3.58;;;4.80;99.90;;;;;;5098273;28;20104;-86
2022/01/28 07:23:54;;;;;;;23.15;3.97;;;5.00;99.90;;;;;;5116335;28;20077;-86
2022/01/28 07:26:20;;;;;;;24.67;3.50;;;4.80;99.90;;;;;;5080695;28;20047;-85
2022/01/28 07:28:46;;;;;;;17.40;2.88;;;4.80;99.90;;;;;;5114930;28;20043;-86
2022/01/28 07:31:16;;;;;;;19.67;3.95;;;4.70;99.90;;;;;;5113698;28;20048;-88
2022/01/28 07:33:42;;;;;;;22.40;4.10;;;4.70;99.90;;;;;;5114827;28;20134;-86
2022/01/28 07:36:07;;;;;;;25.75;4.70;;;4.60;99.90;;;;;;5113358;28;20173;-86
2022/01/28 07:38:33;;;;;;;22.23;4.60;;;4.60;99.90;;;;;;5115896;28;20043;-86
2022/01/28 07:40:59;;;;;;;19.35;3.97;;;4.50;99.90;;;;;;5116022;28;20453;-90
2022/01/28 07:43:25;;;;;;;19.80;3.72;;;4.50;99.90;;;;;;5115433;28;20074;-86
2022/01/28 07:45:51;;;;;;;25.10;3.80;;;4.30;99.90;;;;;;5114377;28;20040;-86
2022/01/28 07:48:17;;;;;;;22.40;3.58;;;4.20;99.90;;;;;;5097399;28;20391;-86
2022/01/28 07:50:45;;;;;;;18.00;3.67;;;4.20;99.90;;;;;;5080776;28;20047;-87
2022/01/28 07:53:15;;;;;;;27.17;4.00;;;4.10;99.90;;;;;;5114022;28;20055;-87
2022/01/28 07:55:41;;;;;;;22.35;3.95;;;4.10;99.90;;;;;;5115829;28;20122;-87
2022/01/28 07:58:06;;;;;;;23.70;4.70;;;4.10;99.90;;;;;;5115642;28;20096;-87
2022/01/28 08:00:32;;;;;;;23.50;4.18;;;4.10;99.90;;;;;;5115621;28;20039;-87
2022/01/28 08:02:58;;;;;;;29.02;4.75;;;4.10;99.90;;;;;;5115277;28;20130;-87
2022/01/28 08:05:24;;;;;;;22.25;3.58;;;4.10;99.90;;;;;;5113746;28;20079;-87
2022/01/28 08:07:49;;;;;;;24.70;4.00;;;4.00;99.90;;;;;;5097576;28;20369;-86
2022/01/28 08:10:16;;;;;;;21.10;3.97;;;4.10;99.90;;;;;;5113501;28;20051;-86
2022/01/28 08:12:52;;;;;;;26.15;5.00;;;4.00;99.90;;;;;;5115410;28;20051;-86
2022/01/28 08:15:18;;;;;;;26.38;3.88;;;4.00;99.90;;;;;;5113951;28;20048;-87
2022/01/28 08:17:44;;;;;;;25.83;3.65;;;4.10;99.90;;;;;;5114054;28;20044;-87
2022/01/28 08:20:10;;;;;;;21.15;3.65;;;4.20;99.90;;;;;;5113972;28;20373;-86
2022/01/28 08:22:57;;;;;;;20.27;3.60;;;4.20;99.90;;;;;;5113885;28;20047;-86
2022/01/28 08:25:23;;;;;;;22.55;4.00;;;4.30;99.90;;;;;;5113454;28;20407;-86
2022/01/28 08:27:49;;;;;;;25.13;3.83;;;4.40;99.90;;;;;;5114362;28;20126;-86
2022/01/28 08:30:16;;;;;;;20.25;3.40;;;4.40;99.90;;;;;;5062825;28;20212;-87
2022/01/28 08:32:41;;;;;;;24.02;3.67;;;4.40;99.90;;;;;;5113740;28;20062;-86
2022/01/28 08:35:07;;;;;;;26.02;3.40;;;4.40;99.90;;;;;;5113779;28;20040;-86
2022/01/28 08:37:33;;;;;;;20.70;3.88;;;4.40;99.90;;;;;;5114273;28;20054;-86
2022/01/28 08:40:02;;;;;;;25.42;4.13;;;4.50;99.90;;;;;;5114815;28;20042;-85
2022/01/28 08:42:27;;;;;;;31.63;4.30;;;4.40;99.90;;;;;;5114524;28;20048;-86
2022/01/28 08:44:53;;;;;;;24.25;4.32;;;4.40;99.90;;;;;;5114674;28;20379;-86
2022/01/28 08:47:19;;;;;;;21.85;4.20;;;4.50;99.90;;;;;;5113282;28;20052;-87
2022/01/28 08:49:46;;;;;;;31.08;4.88;;;4.50;99.90;;;;;;5096540;28;20055;-86
2022/01/28 08:52:11;;;;;;;30.42;4.07;;;4.50;99.90;;;;;;5113560;28;20403;-86
2022/01/28 08:54:37;;;;;;;25.48;4.47;;;4.50;99.90;;;;;;5095647;28;20043;-86
2022/01/28 08:57:03;;;;;;;34.20;4.25;;;4.50;99.90;;;;;;5096229;28;20118;-88
2022/01/28 08:59:29;;;;;;;20.95;3.55;;;4.60;99.90;;;;;;5096095;28;20425;-87
2022/01/28 09:01:55;;;;;;;20.77;3.60;;;4.60;99.90;;;;;;5113244;28;20050;-87
2022/01/28 09:04:20;;;;;;;28.60;4.18;;;4.70;99.90;;;;;;5112699;28;20128;-88
2022/01/28 09:06:46;;;;;;;29.13;3.80;;;4.90;99.90;;;;;;5114117;28;20130;-87
2022/01/28 09:09:12;;;;;;;30.02;4.25;;;5.00;99.90;;;;;;5096062;28;20566;-87
2022/01/28 09:14:15;;;;;;;27.88;3.97;;;5.30;99.90;;;;;;5114515;28;20470;-84
2022/01/28 09:16:42;;;;;;;28.00;3.90;;;5.40;99.90;;;;;;5096041;28;20089;-84
2022/01/28 09:19:08;;;;;;;30.42;5.40;;;5.40;99.90;;;;;;5113384;28;20090;-84
2022/01/28 09:21:33;;;;;;;28.80;4.90;;;5.50;99.90;;;;;;5113319;28;20494;-84
2022/01/28 09:23:59;;;;;;;28.08;4.00;;;5.60;99.90;;;;;;5096013;28;20079;-84
2022/01/28 09:26:25;;;;;;;30.02;5.00;;;5.70;99.90;;;;;;5114413;28;20043;-84
2022/01/28 09:28:50;;;;;;;28.67;4.28;;;5.80;99.90;;;;;;5114782;28;20050;-83
2022/01/28 09:31:16;;;;;;;26.80;4.60;;;6.00;99.90;;;;;;5113092;28;20100;-84
2022/01/28 09:33:42;;;;;;;26.77;3.80;;;6.10;99.90;;;;;;5114590;28;20043;-84
2022/01/28 09:36:07;;;;;;;28.85;4.30;;;6.20;99.90;;;;;;5096634;28;20047;-84
2022/01/28 09:38:33;;;;;;;24.65;4.60;;;6.30;99.90;;;;;;5113255;28;20388;-85
2022/01/28 09:41:00;;;;;;;24.88;4.60;;;6.30;99.90;;;;;;5113721;28;20047;-84
2022/01/28 09:43:26;;;;;;;31.15;5.18;;;6.30;99.90;;;;;;5096155;28;20047;-84
2022/01/28 09:45:52;;;;;;;21.60;4.22;;;6.20;99.90;;;;;;5113093;28;20039;-84
2022/01/28 09:48:18;;;;;;;27.23;4.10;;;6.30;99.90;;;;;;5113331;28;20047;-84
2022/01/28 09:50:46;;;;;;;26.95;4.60;;;6.30;99.90;;;;;;5113074;28;20483;-84
2022/01/28 09:53:15;;;;;;;27.77;4.65;;;6.40;99.90;;;;;;5112704;28;20047;-84
2022/01/28 09:55:41;;;;;;;27.42;4.10;;;6.40;99.90;;;;;;5095976;28;20085;-85
2022/01/28 09:58:06;;;;;;;31.05;4.55;;;6.50;99.90;;;;;;5112760;28;20374;-84
2022/01/28 10:00:33;;;;;;;25.67;4.18;;;6.60;99.90;;;;;;5112868;28;20126;-85
2022/01/28 10:03:06;;;;;;;30.95;4.75;;;6.60;99.90;;;;;;5096093;28;20047;-85
2022/01/28 10:05:33;;;;;;;26.65;3.65;;;6.70;99.90;;;;;;5096900;28;20103;-85
2022/01/28 10:08:18;;;;;;;23.88;4.50;;;6.70;99.90;;;;;;5096139;28;20059;-85
2022/01/28 10:11:08;;;;;;;24.38;4.68;;;6.70;99.90;;;;;;5114059;28;20119;-85
2022/01/28 10:13:40;;;;;;;23.05;4.13;;;6.80;99.90;;;;;;5113264;28;20135;-85
2022/01/28 10:16:16;;;;;;;28.10;5.45;;;6.80;99.90;;;;;;5096998;28;20038;-84
2022/01/28 10:18:54;;;;;;;28.67;4.95;;;6.80;99.90;;;;;;5113788;28;20046;-86
2022/01/28 10:21:33;;;;;;;26.85;4.68;;;6.90;99.90;;;;;;5112284;28;20458;-84
2022/01/28 10:24:06;;;;;;;23.98;4.05;;;6.90;99.90;;;;;;5112310;28;20139;-84
2022/01/28 10:26:33;;;;;;;24.10;4.45;;;6.80;99.90;;;;;;5112812;28;20451;-87
2022/01/28 10:28:59;;;;;;;23.60;3.80;;;6.80;99.90;;;;;;5113122;28;20078;-85
2022/01/28 10:31:34;;;;;;;26.85;3.72;;;6.80;99.90;;;;;;5111525;28;20055;-84
2022/01/28 10:34:09;;;;;;;20.40;4.00;;;6.90;99.90;;;;;;5115483;28;20427;-83
2022/01/28 10:36:35;;;;;;;24.42;4.78;;;6.90;99.90;;;;;;5117055;28;20070;-85
2022/01/28 10:39:01;;;;;;;21.30;4.57;;;6.90;99.90;;;;;;5116769;28;20051;-89
2022/01/28 10:41:26;;;;;;;24.80;3.83;;;6.80;99.90;;;;;;5115507;28;20051;-87
2022/01/28 10:43:55;;;;;;;25.00;3.58;;;6.90;99.90;;;;;;5115676;28;20047;-87
2022/01/28 10:46:33;;;;;;;23.25;3.75;;;6.90;99.90;;;;;;5115874;28;20117;-87
2022/01/28 10:49:04;;;;;;;27.75;4.35;;;6.90;99.90;;;;;;5116049;28;20048;-86
2022/01/28 10:51:38;;;;;;;26.58;4.70;;;6.90;99.90;;;;;;5115772;28;20567;-86
2022/01/28 10:54:22;;;;;;;27.42;3.80;;;6.90;99.90;;;;;;5118015;28;20044;-87
2022/01/28 10:57:00;;;;;;;30.73;4.95;;;6.90;99.90;;;;;;5111985;28;20040;-87
2022/01/28 10:59:27;;;;;;;26.70;4.10;;;6.90;99.90;;;;;;5116632;28;20040;-86
2022/01/28 11:01:53;;;;;;;27.67;3.85;;;6.90;99.90;;;;;;5115962;28;20399;-86
2022/01/28 11:04:19;;;;;;;27.90;4.63;;;6.90;99.90;;;;;;5116695;28;20047;-86
2022/01/28 11:06:45;;;;;;;19.67;4.45;;;6.90;99.90;;;;;;5097945;28;20040;-87
2022/01/28 11:09:12;;;;;;;24.42;4.13;;;6.80;99.90;;;;;;5116480;28;20047;-87
2022/01/28 11:11:37;;;;;;;24.52;4.07;;;6.80;99.90;;;;;;5114742;28;20081;-87
2022/01/28 11:14:03;;;;;;;28.75;4.82;;;6.90;99.90;;;;;;5081670;28;20051;-87
2022/01/28 11:16:29;;;;;;;20.20;3.78;;;6.90;99.90;;;;;;5116166;28;20043;-88
2022/01/28 11:18:56;;;;;;;23.95;4.68;;;6.90;99.90;;;;;;5114545;28;20143;-87
2022/01/28 11:21:40;;;;;;;27.27;4.30;;;6.90;99.90;;;;;;5081535;28;20055;-86
2022/01/28 11:24:12;;;;;;;25.90;4.32;;;7.10;99.90;;;;;;5116086;28;20119;-87
2022/01/28 11:26:52;;;;;;;27.63;4.13;;;7.10;99.90;;;;;;5116204;28;20069;-87
2022/01/28 11:29:19;;;;;;;27.90;4.05;;;7.30;99.90;;;;;;5115031;28;20399;-87
2022/01/28 11:31:50;;;;;;;19.05;3.40;;;7.20;99.90;;;;;;5097725;28;20051;-88
2022/01/28 11:34:29;;;;;;;20.70;3.50;;;7.20;99.90;;;;;;5081295;28;20043;-87
2022/01/28 11:37:23;;;;;;;22.05;3.22;;;7.20;99.90;;;;;;5080717;28;20047;-88
2022/01/28 11:39:50;;;;;;;19.25;3.67;;;7.10;99.90;;;;;;5105838;28;20142;-87
2022/01/28 11:42:29;;;;;;;20.95;3.72;;;7.00;99.90;;;;;;5098088;28;20110;-87
2022/01/28 11:44:59;;;;;;;22.85;3.35;;;7.00;99.90;;;;;;5096926;28;20499;-87
2022/01/28 11:47:31;;;;;;;19.70;4.10;;;6.90;99.90;;;;;;5098336;28;20040;-87
2022/01/28 11:50:04;;;;;;;26.42;4.20;;;6.90;99.90;;;;;;5115385;28;20040;-87
2022/01/28 11:52:31;;;;;;;27.02;3.80;;;6.80;99.90;;;;;;5115861;28;20052;-87
2022/01/28 11:55:23;;;;;;;33.20;4.00;;;6.80;99.90;;;;;;5096009;28;20143;-89
2022/01/28 11:58:05;;;;;;;19.40;4.18;;;6.80;99.90;;;;;;5114428;28;20236;-87
2022/01/28 12:00:36;;;;;;;23.30;4.07;;;6.90;99.90;;;;;;5115155;28;20058;-87
2022/01/28 12:03:02;;;;;;;27.85;4.10;;;6.90;99.90;;;;;;5097201;28;20051;-88
2022/01/28 12:05:31;;;;;;;24.33;3.70;;;7.00;99.90;;;;;;5097288;28;20486;-87
2022/01/28 12:07:59;;;;;;;24.88;3.50;;;7.10;99.90;;;;;;5079931;28;20096;-87
2022/01/28 12:10:24;;;;;;;17.88;3.30;;;7.10;99.90;;;;;;5096983;28;20055;-87
2022/01/28 12:12:59;;;;;;;24.27;3.75;;;7.10;99.90;;;;;;5096680;28;20104;-87
2022/01/28 12:15:29;;;;;;;27.15;4.07;;;7.20;99.90;;;;;;5081610;28;20050;-88
2022/01/28 12:18:05;;;;;;;;;;;7.20;99.90;;;;;;5080630;28;20128;-88
2022/01/28 12:20:39;;;;;;;20.50;3.50;;;7.30;99.90;;;;;;5115131;28;19924;-88
2022/01/28 12:23:11;;;;;;;21.75;3.97;;;7.50;99.90;;;;;;5079559;28;20044;-87
2022/01/28 12:25:36;;;;;;;21.90;3.97;;;7.50;99.90;;;;;;5096981;28;20126;-87
2022/01/28 12:28:33;;;;;;;24.35;3.38;;;7.60;99.90;;;;;;5096386;28;20185;-88
2022/01/28 12:31:00;;;;;;;20.15;3.13;;;7.70;99.90;;;;;;5107098;28;20056;-88
2022/01/28 12:33:33;;;;;;;22.45;3.80;;;7.70;99.90;;;;;;5113769;28;20075;-88
2022/01/28 12:36:00;;;;;;;21.38;3.65;;;7.80;99.90;;;;;;5114395;27;20043;-87
2022/01/28 12:38:29;;;;;;;20.27;3.30;;;7.90;99.90;;;;;;5097096;28;20452;-87
2022/01/28 12:40:57;;;;;;;27.08;3.80;;;7.90;99.90;;;;;;5096559;28;20043;-88
2022/01/28 12:43:24;;;;;;;21.25;3.40;;;8.00;99.90;;;;;;5113636;28;20051;-87
2022/01/28 12:46:00;;;;;;;22.00;3.08;;;8.00;99.90;;;;;;5114653;28;20090;-88
2022/01/28 12:48:26;;;;;;;19.02;2.80;;;8.10;99.90;;;;;;5114749;28;20044;-89
2022/01/28 12:50:52;;;;;;;17.38;3.40;;;8.00;99.90;;;;;;5079189;28;20043;-87
2022/01/28 12:53:35;;;;;;;20.30;3.10;;;8.00;99.90;;;;;;5113557;28;20130;-85
2022/01/28 12:56:01;;;;;;;15.88;3.25;;;8.10;99.90;;;;;;5095091;28;20452;-86
2022/01/28 12:58:37;;;;;;;20.95;2.75;;;8.10;99.90;;;;;;5113084;28;20040;-86
2022/01/28 13:01:11;;;;;;;24.38;3.15;;;8.10;99.90;;;;;;5112981;28;20043;-87
2022/01/28 13:03:45;;;;;;;25.90;2.97;;;8.20;99.90;;;;;;5113299;28;20048;-87
2022/01/28 13:08:59;;;;;;;14.15;2.72;;;8.20;99.90;;;;;;5112730;28;20096;-88
2022/01/28 13:11:25;;;;;;;21.10;3.05;;;8.10;99.90;;;;;;5111907;28;20369;-87
2022/01/28 13:14:00;;;;;;;16.80;2.63;;;8.00;99.90;;;;;;5078852;28;20394;-93
2022/01/28 13:16:33;;;;;;;20.02;3.78;;;7.90;99.90;;;;;;5114424;28;20040;-92
2022/01/28 13:18:59;;;;;;;19.05;3.22;;;7.80;99.90;;;;;;5112442;28;20525;-93
2022/01/28 13:21:25;;;;;;;19.30;3.17;;;7.70;99.90;;;;;;5114747;28;20128;-93
2022/01/28 13:24:10;;;;;;;18.70;3.30;;;7.70;99.90;;;;;;5113341;28;20055;-93
2022/01/28 13:26:36;;;;;;;23.42;3.47;;;7.70;99.90;;;;;;5114127;28;20050;-93
2022/01/28 13:29:11;;;;;;;16.75;3.03;;;7.60;99.90;;;;;;5112537;28;20055;-92
2022/01/28 13:31:37;;;;;;;19.33;3.15;;;7.60;99.90;;;;;;5113049;28;20059;-93
2022/01/28 13:34:05;;;;;;;20.75;3.13;;;7.70;99.90;;;;;;5113539;28;20043;-92
2022/01/28 13:36:48;;;;;;;21.98;2.90;;;7.80;99.90;;;;;;5096473;28;20047;-93
2022/01/28 13:39:15;;;;;;;20.13;3.08;;;8.00;99.90;;;;;;5095617;28;20048;-93
2022/01/28 13:41:41;;;;;;;18.33;3.33;;;8.10;99.90;;;;;;5096273;28;20147;-92
2022/01/28 13:44:21;;;;;;;19.10;2.58;;;8.10;99.90;;;;;;5112388;28;20048;-92
2022/01/28 13:47:01;;;;;;;22.83;3.43;;;8.00;99.90;;;;;;5112568;28;20044;-92
2022/01/28 13:49:32;;;;;;;20.02;3.15;;;7.90;99.90;;;;;;5095935;28;20503;-91
2022/01/28 13:52:08;;;;;;;;;;;7.80;99.90;;;;;;5113239;28;20400;-91
2022/01/28 13:54:34;;;;;;;19.40;3.25;;;7.70;99.90;;;;;;5096057;28;19919;-90
2022/01/28 13:57:01;;;;;;;19.35;2.80;;;7.60;99.90;;;;;;5112415;28;20407;-90
2022/01/28 13:59:29;;;;;;;13.20;2.60;;;7.60;99.90;;;;;;5112549;28;20114;-93
2022/01/28 14:01:58;;;;;;;16.00;2.80;;;7.60;99.90;;;;;;5095752;28;20043;-93
2022/01/28 14:04:33;;;;;;;20.27;3.10;;;7.60;99.90;;;;;;5112288;28;20049;-93
2022/01/28 14:07:20;;;;;;;18.58;3.00;;;7.60;99.90;;;;;;5113401;28;20039;-93
2022/01/28 14:10:06;;;;;;;18.02;2.42;;;7.60;99.90;;;;;;5113495;28;20083;-92
2022/01/28 14:12:42;;;;;;;16.33;2.65;;;7.60;99.90;;;;;;5112929;28;20169;-91